»·PEaware :: AAL1094 KBOS-KDFW

AAL1094 :: KBOS-KDFW

FLIGHT INFORMATION

Flight Status: Arrived
Operator:
American Airlines
More flights by this operator :: More flights under this callsign
Pilot: Kolin J. (28867)
Aircraft: BOEING 737-800
(B738)
More flights by this aircraft type
Origin: KBOS Logan Intl
United States
Destination: KDFW Dallas-Ft Worth Intl
United States
More flights between these airports :: More routes between these airports
Route: BLZZR4 BLZZR BAF Q406 BWZ J6 LIT FEWWW SEEVR4
File this flight plan on PilotEdge
Remarks:
Altitude:
(Current/Filed)
36,000ft
Speed:
(Current/Filed)
450kts
Departed: 15-May-20 04:34 PM
Arrived: 15-May-20 08:12 PM
Distance/Time
Traveled:
1354nm/3:38
Distance/Time
To Go:
Arrived

Flight Plot

Page will automatically refresh every two minutes.

Flight plan parsing failed; only flown route is shown


Map Options




Map Legend


Flown Route
Filed Route
Departure Airport
Arrival Airport
Navaid (VOR, NDB)
Fix

Horizontal Profiles

Position Reports

Time Latitude Longitude Heading Altitude Ground
Speed
15-May-20 16:30 42.360994 -71.022231 128 17ft 24kts
15-May-20 16:31 42.358720 -71.014872 102 23ft 34kts
15-May-20 16:32 42.358672 -71.008123 22 20ft 25kts
15-May-20 16:33 42.381292 -70.996755 21 405ft 184kts
15-May-20 16:34 42.417133 -70.970732 43 2236ft 214kts
15-May-20 16:35 42.446077 -70.902029 70 3845ft 272kts
15-May-20 16:36 42.439421 -70.794955 122 5100ft 309kts
15-May-20 16:37 42.369428 -70.742952 173 6323ft 288kts
15-May-20 16:38 42.294063 -70.755833 217 7532ft 280kts
15-May-20 16:39 42.247957 -70.816917 234 8527ft 282kts
15-May-20 16:40 42.218031 -70.889142 244 9454ft 302kts
15-May-20 16:41 42.198906 -70.965068 263 10369ft 289kts
15-May-20 16:42 42.198484 -71.046812 271 11245ft 300kts
15-May-20 16:43 42.200922 -71.126454 271 12100ft 292kts
15-May-20 16:44 42.203173 -71.204762 271 12967ft 283kts
15-May-20 16:45 42.205532 -71.288919 271 13886ft 303kts
15-May-20 16:46 42.207984 -71.378401 271 14807ft 286kts
15-May-20 16:47 42.210400 -71.469664 272 15793ft 303kts
15-May-20 16:48 42.212817 -71.563455 272 16763ft 303kts
15-May-20 16:49 42.215132 -71.656167 271 17709ft 310kts
15-May-20 16:50 42.216404 -71.743692 266 18621ft 311kts
15-May-20 16:51 42.199923 -71.835006 254 19600ft 323kts
15-May-20 16:52 42.177656 -71.929131 254 20585ft 323kts
15-May-20 16:53 42.154643 -72.026693 254 21586ft 332kts
15-May-20 16:54 42.131506 -72.124318 254 22573ft 335kts
15-May-20 16:55 42.108491 -72.221028 254 23529ft 342kts
15-May-20 16:56 42.085304 -72.318051 254 24470ft 346kts
15-May-20 16:57 42.061753 -72.416173 254 25404ft 349kts
15-May-20 16:58 42.037919 -72.515093 254 26334ft 358kts
15-May-20 16:59 42.013572 -72.615644 254 27249ft 358kts
15-May-20 17:00 41.990346 -72.711012 254 28150ft 358kts
15-May-20 17:01 41.965097 -72.814383 254 29138ft 361kts
15-May-20 17:02 41.938407 -72.923173 254 30168ft 357kts
15-May-20 17:03 41.913801 -73.023031 254 31123ft 353kts
15-May-20 17:04 41.889967 -73.119373 254 31863ft 353kts
15-May-20 17:05 41.865186 -73.219285 254 31889ft 372kts
15-May-20 17:06 41.838056 -73.328167 254 31889ft 389kts
15-May-20 17:07 41.811042 -73.435942 254 31879ft 389kts
15-May-20 17:08 41.783282 -73.546134 254 31856ft 383kts
15-May-20 17:09 41.756251 -73.653086 253 31829ft 389kts
15-May-20 17:10 41.732086 -73.748039 253 31828ft 391kts
15-May-20 17:11 41.707579 -73.844062 253 31828ft 392kts
15-May-20 17:12 41.682358 -73.942516 253 31831ft 385kts
15-May-20 17:13 41.656451 -74.043309 253 31857ft 387kts
15-May-20 17:14 41.630038 -74.145641 253 31875ft 382kts
15-May-20 17:15 41.603267 -74.248924 253 31875ft 390kts
15-May-20 17:16 41.575962 -74.353829 253 31851ft 387kts
15-May-20 17:17 41.548491 -74.458877 253 31857ft 388kts
15-May-20 17:18 41.521123 -74.563061 253 31882ft 383kts
15-May-20 17:19 41.494879 -74.662650 253 31913ft 387kts
15-May-20 17:20 41.469938 -74.756668 252 31923ft 388kts
15-May-20 17:21 41.444132 -74.853678 253 31940ft 386kts
15-May-20 17:22 41.417843 -74.952191 252 31949ft 385kts
15-May-20 17:23 41.391786 -75.049460 252 31962ft 382kts
15-May-20 17:24 41.365785 -75.146098 252 31982ft 381kts
15-May-20 17:25 41.339972 -75.241758 252 31980ft 380kts
15-May-20 17:26 41.314057 -75.337448 252 31977ft 380kts
15-May-20 17:27 41.287513 -75.435127 252 31970ft 382kts
15-May-20 17:28 41.260356 -75.534645 252 31960ft 380kts
15-May-20 17:29 41.233371 -75.633124 252 31954ft 380kts
15-May-20 17:30 41.208377 -75.723764 251 31972ft 382kts
15-May-20 17:31 41.182605 -75.817034 251 31980ft 386kts
15-May-20 17:32 41.155705 -75.914076 251 31987ft 377kts
15-May-20 17:33 41.129238 -76.009240 251 32000ft 381kts
15-May-20 17:35 41.100991 -76.110531 251 31992ft 381kts
15-May-20 17:36 41.072511 -76.212072 251 31999ft 387kts
15-May-20 17:37 41.042774 -76.317867 251 31992ft 391kts
15-May-20 17:38 41.012673 -76.424333 251 31974ft 393kts
15-May-20 17:39 40.981600 -76.533907 251 31941ft 398kts
15-May-20 17:40 40.949928 -76.645041 251 31932ft 401kts
15-May-20 17:41 40.920592 -76.747374 250 31937ft 402kts
15-May-20 17:42 40.891839 -76.847325 251 31936ft 400kts
15-May-20 17:43 40.862772 -76.948071 251 31937ft 403kts
15-May-20 17:44 40.832107 -77.053982 251 31934ft 404kts
15-May-20 17:45 40.800622 -77.162233 251 31939ft 405kts
15-May-20 17:46 40.767998 -77.273988 251 31941ft 404kts
15-May-20 17:47 40.734857 -77.386948 251 31941ft 404kts
15-May-20 17:48 40.700936 -77.502141 251 31942ft 404kts
15-May-20 17:49 40.667338 -77.615745 251 31942ft 404kts
15-May-20 17:50 40.636516 -77.719381 250 31947ft 404kts
15-May-20 17:50 40.610976 -77.804974 250 31951ft 404kts
15-May-20 17:52 40.573802 -77.929168 250 31973ft 404kts
15-May-20 17:52 40.547219 -78.017705 250 31989ft 404kts
15-May-20 17:53 40.514824 -78.125154 250 31996ft 404kts
15-May-20 17:55 40.476886 -78.250473 250 31999ft 404kts
15-May-20 17:55 40.449756 -78.339761 250 31996ft 406kts
15-May-20 17:56 40.416441 -78.449064 250 31998ft 407kts
15-May-20 17:57 40.382567 -78.559708 250 31999ft 400kts
15-May-20 17:58 40.351086 -78.662049 249 32019ft 403kts
15-May-20 17:59 40.319982 -78.762771 249 32026ft 410kts
15-May-20 18:00 40.285035 -78.875573 249 32026ft 407kts
15-May-20 18:01 40.248660 -78.992191 250 32029ft 401kts
15-May-20 18:02 40.212200 -79.108571 250 32019ft 400kts
15-May-20 18:03 40.178173 -79.216902 250 32035ft 402kts
15-May-20 18:04 40.142564 -79.329784 250 32034ft 403kts
15-May-20 18:05 40.106671 -79.443101 250 32030ft 403kts
15-May-20 18:06 40.071195 -79.554153 250 32033ft 391kts
15-May-20 18:07 40.040141 -79.651409 249 32032ft 398kts
15-May-20 18:08 40.009633 -79.746614 249 32041ft 407kts
15-May-20 18:09 39.974973 -79.854939 249 32038ft 424kts
15-May-20 18:10 39.940011 -79.963448 249 32134ft 412kts
15-May-20 18:11 39.907141 -80.064186 249 33198ft 397kts
15-May-20 18:12 39.875483 -80.161044 249 34028ft 393kts
15-May-20 18:13 39.838501 -80.274556 249 34064ft 410kts
15-May-20 18:14 39.785422 -80.380194 222 34075ft 436kts
15-May-20 18:15 39.699582 -80.458533 220 34045ft 427kts
15-May-20 18:16 39.611491 -80.537364 220 34042ft 427kts
15-May-20 18:17 38.820564 -81.238659 218 33891ft 434kts
15-May-20 18:18 38.729886 -81.318627 218 34503ft 424kts
15-May-20 18:19 38.661726 -81.378620 218 35985ft 395kts
15-May-20 18:20 38.592013 -81.440137 218 36067ft 412kts
15-May-20 18:21 38.519950 -81.503712 218 36063ft 434kts
15-May-20 18:22 38.447053 -81.572052 228 36063ft 441kts
15-May-20 18:23 38.394029 -81.665774 242 36064ft 434kts
15-May-20 18:24 38.208382 -82.158422 252 36064ft 426kts
15-May-20 18:25 38.131668 -82.522178 260 36057ft 411kts
15-May-20 18:26 38.107665 -82.626648 253 36053ft 419kts
15-May-20 18:27 37.776721 -83.758349 250 36073ft 425kts
15-May-20 18:28 37.614642 -84.285824 251 36094ft 413kts
15-May-20 18:29 37.340745 -85.168207 250 36181ft 420kts
15-May-20 18:30 36.924020 -86.460949 247 36030ft 413kts
15-May-20 18:31 36.878890 -86.582594 247 36044ft 431kts
15-May-20 18:32 36.840192 -86.690219 246 36047ft 429kts
15-May-20 18:33 36.805118 -86.787419 246 36048ft 428kts
15-May-20 18:34 36.771003 -86.881696 246 36046ft 428kts
15-May-20 18:35 36.734849 -86.981293 246 36047ft 428kts
15-May-20 18:36 36.698006 -87.082459 246 36044ft 426kts
15-May-20 18:37 36.661475 -87.182442 245 36047ft 429kts
15-May-20 18:38 36.625124 -87.281622 245 36043ft 428kts
15-May-20 18:39 36.586452 -87.386783 245 36044ft 431kts
15-May-20 18:40 36.546345 -87.495487 245 36040ft 434kts
15-May-20 18:41 36.506438 -87.603215 245 36044ft 419kts
15-May-20 18:42 36.468842 -87.704390 245 36048ft 430kts
15-May-20 18:43 36.431885 -87.803527 245 36045ft 426kts
15-May-20 18:44 36.392804 -87.908048 245 36043ft 430kts
15-May-20 18:45 36.352885 -88.014440 245 36033ft 421kts
15-May-20 18:46 36.308170 -88.133198 245 36037ft 430kts
15-May-20 18:47 36.261068 -88.257830 245 36033ft 426kts
15-May-20 18:48 36.213916 -88.382093 245 36035ft 427kts
15-May-20 18:49 36.167779 -88.503224 245 36033ft 426kts
15-May-20 18:50 36.123331 -88.623874 248 36028ft 427kts
15-May-20 18:51 36.085645 -88.736673 247 36019ft 427kts
15-May-20 18:52 36.045807 -88.855001 247 36015ft 425kts
15-May-20 18:53 36.001258 -88.986788 247 36009ft 419kts
15-May-20 18:54 35.958296 -89.113338 246 36008ft 417kts
15-May-20 18:55 35.917083 -89.234251 246 36006ft 418kts
15-May-20 18:56 35.879971 -89.342724 247 36008ft 417kts
15-May-20 18:57 35.844417 -89.446282 247 36007ft 418kts
15-May-20 18:58 35.806060 -89.557616 247 36005ft 418kts
15-May-20 18:59 35.770156 -89.661462 246 35999ft 417kts
15-May-20 19:00 35.734277 -89.764790 246 35994ft 418kts
15-May-20 19:01 35.697589 -89.870190 246 35992ft 417kts
15-May-20 19:02 35.658896 -89.980970 246 35989ft 418kts
15-May-20 19:03 35.619189 -90.094220 247 36009ft 415kts
15-May-20 19:04 35.578889 -90.208766 247 36009ft 415kts
15-May-20 19:05 35.536470 -90.328904 247 35992ft 413kts
15-May-20 19:06 35.491052 -90.456971 247 35998ft 417kts
15-May-20 19:07 35.446927 -90.580966 247 35992ft 417kts
15-May-20 19:08 35.402581 -90.704893 246 36006ft 412kts
15-May-20 19:09 35.357000 -90.831956 246 36005ft 422kts
15-May-20 19:10 35.310190 -90.961849 246 36006ft 410kts
15-May-20 19:11 35.263079 -91.092046 246 36004ft 416kts
15-May-20 19:12 35.215816 -91.222220 245 35996ft 415kts
15-May-20 19:13 35.168950 -91.350708 245 35997ft 416kts
15-May-20 19:14 35.121383 -91.480625 245 35998ft 419kts
15-May-20 19:15 35.074178 -91.609015 245 35994ft 412kts
15-May-20 19:16 35.031991 -91.723245 245 36000ft 418kts
15-May-20 19:17 34.989778 -91.837195 245 35994ft 415kts
15-May-20 19:18 34.946744 -91.952994 244 35985ft 415kts
15-May-20 19:19 34.904980 -92.064962 244 35979ft 417kts
15-May-20 19:20 34.870954 -92.155919 244 35983ft 414kts
15-May-20 19:21 34.835917 -92.249314 244 35985ft 416kts
15-May-20 19:22 34.795084 -92.357864 244 35991ft 420kts
15-May-20 19:23 34.756361 -92.460422 244 35998ft 412kts
15-May-20 19:24 34.717383 -92.563327 244 36007ft 416kts
15-May-20 19:25 34.679433 -92.663267 244 36006ft 412kts
15-May-20 19:26 34.645038 -92.753412 244 35996ft 417kts
15-May-20 19:27 34.609241 -92.847171 244 35975ft 424kts
15-May-20 19:29 34.569511 -92.950936 244 35967ft 428kts
15-May-20 19:30 34.531245 -93.050680 243 35962ft 431kts
15-May-20 19:31 34.487842 -93.162970 243 35964ft 434kts
15-May-20 19:32 34.444681 -93.274806 243 35951ft 421kts
15-May-20 19:33 34.406658 -93.372540 243 35966ft 420kts
15-May-20 19:34 34.368504 -93.470577 243 35959ft 426kts
15-May-20 19:35 34.329667 -93.570042 243 35960ft 422kts
15-May-20 19:36 34.290514 -93.669979 242 35959ft 424kts
15-May-20 19:37 34.251792 -93.768463 242 35951ft 423kts
15-May-20 19:38 34.209433 -93.875920 242 35942ft 423kts
15-May-20 19:39 34.170502 -93.984244 247 35944ft 424kts
15-May-20 19:40 34.135231 -94.099692 247 34674ft 421kts
15-May-20 19:41 34.100269 -94.213506 247 33059ft 403kts
15-May-20 19:42 34.065442 -94.326343 247 31470ft 421kts
15-May-20 19:42 34.031983 -94.434462 247 30070ft 454kts
15-May-20 19:44 33.986155 -94.581985 246 29282ft 435kts
15-May-20 19:45 33.946453 -94.709065 246 28366ft 453kts
15-May-20 19:45 33.911808 -94.819662 246 27553ft 447kts
15-May-20 19:46 33.874785 -94.937279 247 26732ft 456kts
15-May-20 19:48 33.827191 -95.087914 248 25662ft 444kts
15-May-20 19:48 33.792642 -95.195533 247 24883ft 441kts
15-May-20 19:49 33.751315 -95.324455 248 24022ft 455kts
15-May-20 19:51 33.691129 -95.510993 248 23984ft 442kts
15-May-20 19:51 33.654970 -95.622316 247 22243ft 436kts
15-May-20 19:52 33.617103 -95.738544 247 20047ft 404kts
15-May-20 19:53 33.581465 -95.847643 246 17824ft 391kts
15-May-20 19:54 33.548932 -95.947022 246 15748ft 382kts
15-May-20 19:55 33.514389 -96.052180 246 13489ft 372kts
15-May-20 19:56 33.443376 -96.265644 240 12916ft 372kts
15-May-20 19:57 33.375993 -96.354811 227 11343ft 337kts
15-May-20 19:58 33.323309 -96.438723 244 10323ft 311kts
15-May-20 19:59 33.295329 -96.534215 249 8391ft 316kts
15-May-20 20:00 33.284033 -96.627981 265 7280ft 300kts
15-May-20 20:01 33.275899 -96.808724 264 5975ft 264kts
15-May-20 20:02 33.254871 -96.878382 198 5205ft 250kts
15-May-20 20:03 33.203430 -96.901711 204 4341ft 249kts
15-May-20 20:04 33.094528 -96.979745 215 2989ft 235kts
15-May-20 20:05 33.055931 -97.013478 210 2986ft 216kts
15-May-20 20:06 33.015900 -97.025864 178 2364ft 169kts
15-May-20 20:07 32.987956 -97.025564 178 2115ft 147kts
15-May-20 20:08 32.960683 -97.025943 177 1504ft 145kts
15-May-20 20:09 32.936238 -97.025907 178 1023ft 146kts
15-May-20 20:10 32.911978 -97.025989 181 564ft 131kts
15-May-20 20:11 32.904653 -97.026867 269 566ft 7kts
15-May-20 20:12 32.904655 -97.030905 270 579ft 35kts
15-May-20 20:13 32.906378 -97.034552 321 593ft 23kts
15-May-20 20:14 32.906726 -97.035843 221 595ft 2kts
15-May-20 20:15 32.906723 -97.035847 221 595ft 0kts
15-May-20 20:16 32.906723 -97.035847 221 595ft 0kts
15-May-20 20:17 32.906723 -97.035847 221 595ft 0kts
15-May-20 20:18 32.906723 -97.035847 221 595ft 0kts
15-May-20 20:19 32.906723 -97.035847 221 595ft 0kts
15-May-20 20:20 32.906723 -97.035847 221 595ft 0kts
15-May-20 20:21 32.906723 -97.035847 221 595ft 0kts
15-May-20 20:22 32.906723 -97.035847 221 595ft 0kts
15-May-20 20:23 32.906723 -97.035847 221 595ft 0kts
15-May-20 20:24 32.906723 -97.035847 221 595ft 0kts
15-May-20 20:25 32.906723 -97.035847 221 595ft 0kts
15-May-20 20:26 32.906723 -97.035847 221 595ft 0kts

Navigation Log

Ident Type
Flight plan parsing failed, navigation log unavailable